sensor_id;sensor_type;location;lat;lon;timestamp;pressure;altitude;pressure_sealevel;temperature;humidity
38616;BME280;24370;51.986;4.666;2023-02-03T00:00:15;102569.47;;;13.81;66.69
38616;BME280;24370;51.986;4.666;2023-02-03T00:02:41;102578.28;;;13.92;64.57
38616;BME280;24370;51.986;4.666;2023-02-03T00:05:07;102587.22;;;15.15;62.26
38616;BME280;24370;51.986;4.666;2023-02-03T00:07:33;102591.63;;;14.92;61.96
38616;BME280;24370;51.986;4.666;2023-02-03T00:10:00;102600.25;;;14.17;62.53
38616;BME280;24370;51.986;4.666;2023-02-03T00:12:27;102587.25;;;14.65;64.45
38616;BME280;24370;51.986;4.666;2023-02-03T00:14:52;102592.50;;;14.78;61.23
38616;BME280;24370;51.986;4.666;2023-02-03T00:17:18;102587.13;;;14.13;64.34
38616;BME280;24370;51.986;4.666;2023-02-03T00:19:43;102594.25;;;14.68;62.18
38616;BME280;24370;51.986;4.666;2023-02-03T00:22:08;102574.78;;;13.99;65.45
38616;BME280;24370;51.986;4.666;2023-02-03T00:24:34;102594.28;;;15.00;61.03
38616;BME280;24370;51.986;4.666;2023-02-03T00:26:59;102597.75;;;14.59;62.38
38616;BME280;24370;51.986;4.666;2023-02-03T00:29:25;102595.72;;;13.78;65.61
38616;BME280;24370;51.986;4.666;2023-02-03T00:31:52;102595.97;;;14.46;62.35
38616;BME280;24370;51.986;4.666;2023-02-03T00:34:18;102600.81;;;13.44;65.68
38616;BME280;24370;51.986;4.666;2023-02-03T00:36:43;102592.34;;;14.03;66.50
38616;BME280;24370;51.986;4.666;2023-02-03T00:39:14;102600.31;;;14.37;62.58
38616;BME280;24370;51.986;4.666;2023-02-03T00:41:39;102601.28;;;14.89;60.40
38616;BME280;24370;51.986;4.666;2023-02-03T00:44:05;102607.28;;;14.21;62.59
38616;BME280;24370;51.986;4.666;2023-02-03T00:46:31;102614.34;;;14.39;64.16
38616;BME280;24370;51.986;4.666;2023-02-03T00:48:56;102611.72;;;14.33;64.54
38616;BME280;24370;51.986;4.666;2023-02-03T00:51:22;102616.19;;;14.64;62.31
38616;BME280;24370;51.986;4.666;2023-02-03T00:53:47;102608.22;;;14.42;62.69
38616;BME280;24370;51.986;4.666;2023-02-03T00:56:13;102606.94;;;13.43;67.84
38616;BME280;24370;51.986;4.666;2023-02-03T00:58:39;102602.84;;;14.00;66.19
38616;BME280;24370;51.986;4.666;2023-02-03T01:01:05;102601.16;;;14.19;64.82
38616;BME280;24370;51.986;4.666;2023-02-03T01:03:30;102593.38;;;15.03;64.64
38616;BME280;24370;51.986;4.666;2023-02-03T01:05:56;102601.25;;;14.66;61.01
38616;BME280;24370;51.986;4.666;2023-02-03T01:08:31;102595.69;;;13.68;65.78
38616;BME280;24370;51.986;4.666;2023-02-03T01:10:57;102592.28;;;13.88;66.59
38616;BME280;24370;51.986;4.666;2023-02-03T01:13:22;102595.88;;;14.12;65.15
38616;BME280;24370;51.986;4.666;2023-02-03T01:15:47;102590.66;;;14.30;63.05
38616;BME280;24370;51.986;4.666;2023-02-03T01:18:13;102598.53;;;14.18;63.94
38616;BME280;24370;51.986;4.666;2023-02-03T01:20:38;102584.38;;;13.85;66.35
38616;BME280;24370;51.986;4.666;2023-02-03T01:23:04;102582.75;;;14.24;63.73
38616;BME280;24370;51.986;4.666;2023-02-03T01:25:29;102589.00;;;14.91;60.38
38616;BME280;24370;51.986;4.666;2023-02-03T01:27:55;102593.31;;;14.35;62.88
38616;BME280;24370;51.986;4.666;2023-02-03T01:30:20;102591.53;;;14.26;62.38
38616;BME280;24370;51.986;4.666;2023-02-03T01:32:45;102583.66;;;14.48;62.76
38616;BME280;24370;51.986;4.666;2023-02-03T01:35:11;102555.53;;;14.02;64.08
38616;BME280;24370;51.986;4.666;2023-02-03T01:37:36;102529.34;;;14.84;60.00
38616;BME280;24370;51.986;4.666;2023-02-03T01:40:02;102531.88;;;13.99;61.96
38616;BME280;24370;51.986;4.666;2023-02-03T01:42:31;102541.38;;;13.66;63.18
38616;BME280;24370;51.986;4.666;2023-02-03T01:44:57;102539.75;;;14.06;61.52
38616;BME280;24370;51.986;4.666;2023-02-03T01:47:35;102552.84;;;13.88;63.19
38616;BME280;24370;51.986;4.666;2023-02-03T01:52:47;102559.94;;;14.23;61.06
38616;BME280;24370;51.986;4.666;2023-02-03T01:55:18;102571.41;;;14.56;60.28
38616;BME280;24370;51.986;4.666;2023-02-03T01:58:08;102581.97;;;14.65;59.71
38616;BME280;24370;51.986;4.666;2023-02-03T02:00:35;102572.22;;;14.18;61.74
38616;BME280;24370;51.986;4.666;2023-02-03T02:03:01;102569.72;;;14.70;59.79
38616;BME280;24370;51.986;4.666;2023-02-03T02:05:35;102546.81;;;14.20;63.18
38616;BME280;24370;51.986;4.666;2023-02-03T02:08:03;102538.81;;;13.77;61.87
38616;BME280;24370;51.986;4.666;2023-02-03T02:10:31;102530.19;;;15.09;59.32
38616;BME280;24370;51.986;4.666;2023-02-03T02:12:59;102538.03;;;14.19;61.56
38616;BME280;24370;51.986;4.666;2023-02-03T02:18:23;102531.94;;;14.61;58.46
38616;BME280;24370;51.986;4.666;2023-02-03T02:23:51;102541.59;;;14.54;59.48
38616;BME280;24370;51.986;4.666;2023-02-03T02:26:38;102536.75;;;13.24;65.55
38616;BME280;24370;51.986;4.666;2023-02-03T02:29:35;102532.69;;;13.81;62.95
38616;BME280;24370;51.986;4.666;2023-02-03T02:32:04;102541.59;;;15.03;57.66
38616;BME280;24370;51.986;4.666;2023-02-03T02:37:18;102541.63;;;14.69;59.50
38616;BME280;24370;51.986;4.666;2023-02-03T02:45:07;102550.34;;;14.43;60.51
38616;BME280;24370;51.986;4.666;2023-02-03T02:47:35;102545.88;;;14.04;62.07
38616;BME280;24370;51.986;4.666;2023-02-03T02:50:05;102545.91;;;14.08;62.15
38616;BME280;24370;51.986;4.666;2023-02-03T02:52:35;102547.75;;;14.67;60.04
38616;BME280;24370;51.986;4.666;2023-02-03T02:55:07;102541.59;;;14.85;59.28
38616;BME280;24370;51.986;4.666;2023-02-03T02:57:35;102542.50;;;14.73;59.77
38616;BME280;24370;51.986;4.666;2023-02-03T03:00:03;102537.19;;;14.42;59.64
38616;BME280;24370;51.986;4.666;2023-02-03T03:02:33;102538.03;;;14.05;61.74
38616;BME280;24370;51.986;4.666;2023-02-03T03:05:00;102529.16;;;13.76;63.10
38616;BME280;24370;51.986;4.666;2023-02-03T03:07:27;102524.06;;;14.81;58.89
38616;BME280;24370;51.986;4.666;2023-02-03T03:09:57;102512.69;;;14.68;60.35
38616;BME280;24370;51.986;4.666;2023-02-03T03:12:30;102488.88;;;15.28;57.37
38616;BME280;24370;51.986;4.666;2023-02-03T03:15:09;102506.50;;;14.39;61.44
38616;BME280;24370;51.986;4.666;2023-02-03T03:17:40;102501.09;;;13.68;62.90
38616;BME280;24370;51.986;4.666;2023-02-03T03:20:13;102504.75;;;14.51;60.54
38616;BME280;24370;51.986;4.666;2023-02-03T03:22:55;102487.19;;;14.19;60.43
38616;BME280;24370;51.986;4.666;2023-02-03T03:25:27;102491.59;;;14.31;61.16
38616;BME280;24370;51.986;4.666;2023-02-03T03:27:58;102515.28;;;14.83;59.07
38616;BME280;24370;51.986;4.666;2023-02-03T03:30:29;102523.09;;;14.06;61.84
38616;BME280;24370;51.986;4.666;2023-02-03T03:32:56;102527.47;;;13.99;63.83
38616;BME280;24370;51.986;4.666;2023-02-03T03:35:27;102541.50;;;14.04;62.39
38616;BME280;24370;51.986;4.666;2023-02-03T03:38:04;102546.78;;;14.23;61.51
38616;BME280;24370;51.986;4.666;2023-02-03T03:40:35;102556.41;;;14.12;62.11
38616;BME280;24370;51.986;4.666;2023-02-03T03:45:42;102544.19;;;14.14;60.57
38616;BME280;24370;51.986;4.666;2023-02-03T03:48:20;102529.34;;;14.68;59.35
38616;BME280;24370;51.986;4.666;2023-02-03T03:50:56;102524.91;;;14.35;60.24
38616;BME280;24370;51.986;4.666;2023-02-03T03:53:24;102544.13;;;14.09;62.37
38616;BME280;24370;51.986;4.666;2023-02-03T03:55:52;102539.84;;;14.68;60.25
38616;BME280;24370;51.986;4.666;2023-02-03T03:58:28;102550.31;;;14.25;61.07
38616;BME280;24370;51.986;4.666;2023-02-03T04:00:58;102541.56;;;14.60;60.88
38616;BME280;24370;51.986;4.666;2023-02-03T04:03:29;102550.28;;;14.19;61.92
38616;BME280;24370;51.986;4.666;2023-02-03T04:05:56;102540.69;;;14.33;62.16
38616;BME280;24370;51.986;4.666;2023-02-03T04:08:22;102546.78;;;14.01;61.53
38616;BME280;24370;51.986;4.666;2023-02-03T04:10:47;102533.66;;;14.14;61.89
38616;BME280;24370;51.986;4.666;2023-02-03T04:13:12;102531.06;;;14.38;60.99
38616;BME280;24370;51.986;4.666;2023-02-03T04:15:40;102551.91;;;13.73;63.16
38616;BME280;24370;51.986;4.666;2023-02-03T04:18:05;102544.97;;;15.58;58.24
38616;BME280;24370;51.986;4.666;2023-02-03T04:20:32;102546.69;;;13.80;62.56
38616;BME280;24370;51.986;4.666;2023-02-03T04:22:57;102547.69;;;14.23;63.23
38616;BME280;24370;51.986;4.666;2023-02-03T04:25:24;102553.00;;;14.91;60.38
38616;BME280;24370;51.986;4.666;2023-02-03T04:27:50;102539.00;;;14.75;59.62
38616;BME280;24370;51.986;4.666;2023-02-03T04:30:15;102535.41;;;14.29;61.94
38616;BME280;24370;51.986;4.666;2023-02-03T04:32:43;102532.75;;;14.10;61.18
38616;BME280;24370;51.986;4.666;2023-02-03T04:35:09;102536.31;;;14.41;61.40
38616;BME280;24370;51.986;4.666;2023-02-03T04:37:35;102544.00;;;13.70;64.26
38616;BME280;24370;51.986;4.666;2023-02-03T04:40:00;102538.97;;;14.99;58.99
38616;BME280;24370;51.986;4.666;2023-02-03T04:42:26;102530.22;;;14.81;59.52
38616;BME280;24370;51.986;4.666;2023-02-03T04:44:51;102526.63;;;14.13;62.27
38616;BME280;24370;51.986;4.666;2023-02-03T04:47:17;102543.25;;;13.96;63.84
38616;BME280;24370;51.986;4.666;2023-02-03T04:49:43;102548.56;;;14.18;61.09
38616;BME280;24370;51.986;4.666;2023-02-03T04:52:09;102536.25;;;14.01;63.16
38616;BME280;24370;51.986;4.666;2023-02-03T04:54:35;102541.47;;;14.00;63.59
38616;BME280;24370;51.986;4.666;2023-02-03T04:57:00;102559.81;;;13.78;62.36
38616;BME280;24370;51.986;4.666;2023-02-03T04:59:26;102546.78;;;14.04;61.41
38616;BME280;24370;51.986;4.666;2023-02-03T05:01:52;102545.81;;;13.81;63.98
38616;BME280;24370;51.986;4.666;2023-02-03T05:04:17;102550.41;;;14.64;60.34
38616;BME280;24370;51.986;4.666;2023-02-03T05:06:43;102551.22;;;14.33;61.37
38616;BME280;24370;51.986;4.666;2023-02-03T05:09:08;102552.94;;;14.33;62.03
38616;BME280;24370;51.986;4.666;2023-02-03T05:11:34;102544.81;;;13.51;65.28
38616;BME280;24370;51.986;4.666;2023-02-03T05:13:59;102534.53;;;14.22;61.32
38616;BME280;24370;51.986;4.666;2023-02-03T05:16:25;102534.53;;;14.22;61.58
38616;BME280;24370;51.986;4.666;2023-02-03T05:18:50;102546.81;;;14.35;61.62
38616;BME280;24370;51.986;4.666;2023-02-03T05:21:16;102546.84;;;14.45;60.79
38616;BME280;24370;51.986;4.666;2023-02-03T05:23:41;102546.78;;;14.23;62.84
38616;BME280;24370;51.986;4.666;2023-02-03T05:26:06;102551.09;;;13.91;62.57
38616;BME280;24370;51.986;4.666;2023-02-03T05:28:32;102548.88;;;13.05;67.12
38616;BME280;24370;51.986;4.666;2023-02-03T05:30:59;102556.50;;;14.55;60.14
38616;BME280;24370;51.986;4.666;2023-02-03T05:33:24;102547.72;;;14.57;60.67
38616;BME280;24370;51.986;4.666;2023-02-03T05:35:50;102556.44;;;14.19;61.67
38616;BME280;24370;51.986;4.666;2023-02-03T05:38:15;102552.97;;;14.34;62.28
38616;BME280;24370;51.986;4.666;2023-02-03T05:40:41;102533.69;;;14.46;62.95
38616;BME280;24370;51.986;4.666;2023-02-03T05:43:26;102549.47;;;14.31;62.82
38616;BME280;24370;51.986;4.666;2023-02-03T05:45:51;102547.72;;;14.36;60.64
38616;BME280;24370;51.986;4.666;2023-02-03T05:48:17;102548.50;;;13.93;64.03
38616;BME280;24370;51.986;4.666;2023-02-03T05:50:42;102541.50;;;14.01;64.26
38616;BME280;24370;51.986;4.666;2023-02-03T05:53:07;102545.03;;;14.13;62.75
38616;BME280;24370;51.986;4.666;2023-02-03T05:55:34;102547.75;;;14.61;60.71
38616;BME280;24370;51.986;4.666;2023-02-03T05:58:00;102541.38;;;13.70;62.55
38616;BME280;24370;51.986;4.666;2023-02-03T06:00:26;102545.16;;;14.71;60.35
38616;BME280;24370;51.986;4.666;2023-02-03T06:02:59;102541.63;;;14.82;59.59
38616;BME280;24370;51.986;4.666;2023-02-03T06:05:27;102557.38;;;14.45;61.88
38616;BME280;24370;51.986;4.666;2023-02-03T06:07:53;102558.28;;;14.70;62.06
38616;BME280;24370;51.986;4.666;2023-02-03T06:10:19;102562.41;;;13.67;64.74
38616;BME280;24370;51.986;4.666;2023-02-03T06:12:45;102556.50;;;14.58;61.50
38616;BME280;24370;51.986;4.666;2023-02-03T06:15:10;102553.88;;;14.46;62.41
38616;BME280;24370;51.986;4.666;2023-02-03T06:17:36;102544.13;;;14.01;63.83
38616;BME280;24370;51.986;4.666;2023-02-03T06:20:06;102548.63;;;14.73;60.43
38616;BME280;24370;51.986;4.666;2023-02-03T06:22:33;102553.84;;;14.30;61.91
38616;BME280;24370;51.986;4.666;2023-02-03T06:24:58;102549.50;;;14.54;61.91
38616;BME280;24370;51.986;4.666;2023-02-03T06:27:23;102550.31;;;14.33;60.62
38616;BME280;24370;51.986;4.666;2023-02-03T06:29:49;102538.84;;;13.97;62.85
38616;BME280;24370;51.986;4.666;2023-02-03T06:32:15;102536.22;;;13.95;62.85
38616;BME280;24370;51.986;4.666;2023-02-03T06:34:40;102544.25;;;14.66;60.86
38616;BME280;24370;51.986;4.666;2023-02-03T06:37:06;102546.78;;;14.21;62.50
38616;BME280;24370;51.986;4.666;2023-02-03T06:39:31;102558.25;;;14.62;61.96
38616;BME280;24370;51.986;4.666;2023-02-03T06:41:57;102565.31;;;14.66;59.93
38616;BME280;24370;51.986;4.666;2023-02-03T06:44:22;102568.75;;;14.57;60.18
38616;BME280;24370;51.986;4.666;2023-02-03T06:46:47;102549.38;;;13.98;64.90
38616;BME280;24370;51.986;4.666;2023-02-03T06:49:14;102566.09;;;14.25;64.99
38616;BME280;24370;51.986;4.666;2023-02-03T06:51:41;102578.47;;;14.82;61.82
38616;BME280;24370;51.986;4.666;2023-02-03T06:54:06;102577.50;;;14.39;63.09
38616;BME280;24370;51.986;4.666;2023-02-03T06:56:32;102578.22;;;13.80;66.30
38616;BME280;24370;51.986;4.666;2023-02-03T06:58:57;102585.16;;;13.65;66.66
38616;BME280;24370;51.986;4.666;2023-02-03T07:01:23;102608.09;;;14.05;65.43
38616;BME280;24370;51.986;4.666;2023-02-03T07:03:50;102608.91;;;13.90;65.23
38616;BME280;24370;51.986;4.666;2023-02-03T07:06:15;102598.56;;;14.33;62.29
38616;BME280;24370;51.986;4.666;2023-02-03T07:08:41;102606.56;;;14.67;61.36
38616;BME280;24370;51.986;4.666;2023-02-03T07:11:06;102602.97;;;14.56;62.66
38616;BME280;24370;51.986;4.666;2023-02-03T07:13:32;102592.47;;;14.59;63.21
38616;BME280;24370;51.986;4.666;2023-02-03T07:15:58;102601.31;;;14.80;62.52
38616;BME280;24370;51.986;4.666;2023-02-03T07:18:23;102613.44;;;14.31;64.20
38616;BME280;24370;51.986;4.666;2023-02-03T07:20:51;102612.41;;;13.81;66.60
38616;BME280;24370;51.986;4.666;2023-02-03T07:23:16;102621.19;;;13.89;66.55
38616;BME280;24370;51.986;4.666;2023-02-03T07:25:42;102610.81;;;14.27;64.79
38616;BME280;24370;51.986;4.666;2023-02-03T07:28:07;102622.09;;;13.96;66.61
38616;BME280;24370;51.986;4.666;2023-02-03T07:30:33;102617.94;;;14.68;62.87
38616;BME280;24370;51.986;4.666;2023-02-03T07:32:58;102615.25;;;14.57;64.04
38616;BME280;24370;51.986;4.666;2023-02-03T07:35:24;102610.06;;;14.85;60.64
38616;BME280;24370;51.986;4.666;2023-02-03T07:37:50;102607.34;;;14.43;64.12
38616;BME280;24370;51.986;4.666;2023-02-03T07:40:15;102603.81;;;14.39;63.80
38616;BME280;24370;51.986;4.666;2023-02-03T07:42:46;102608.28;;;14.81;62.93
38616;BME280;24370;51.986;4.666;2023-02-03T07:45:14;102607.09;;;13.69;66.44
38616;BME280;24370;51.986;4.666;2023-02-03T07:47:41;102617.97;;;14.80;61.58
38616;BME280;24370;51.986;4.666;2023-02-03T07:50:07;102611.81;;;14.73;62.80
38616;BME280;24370;51.986;4.666;2023-02-03T07:52:32;102622.28;;;14.58;63.52
38616;BME280;24370;51.986;4.666;2023-02-03T07:54:58;102632.03;;;14.96;61.67
38616;BME280;24370;51.986;4.666;2023-02-03T07:57:23;102616.19;;;14.81;62.85
38616;BME280;24370;51.986;4.666;2023-02-03T07:59:48;102620.59;;;14.91;61.45
38616;BME280;24370;51.986;4.666;2023-02-03T08:02:14;102622.28;;;14.58;61.79
38616;BME280;24370;51.986;4.666;2023-02-03T08:04:39;102616.16;;;14.62;60.96
38616;BME280;24370;51.986;4.666;2023-02-03T08:07:05;102615.25;;;14.60;61.53
38616;BME280;24370;51.986;4.666;2023-02-03T08:09:30;102632.88;;;14.83;63.02
38616;BME280;24370;51.986;4.666;2023-02-03T08:11:55;102620.50;;;14.45;63.85
38616;BME280;24370;51.986;4.666;2023-02-03T08:14:21;102624.00;;;14.43;62.56
38616;BME280;24370;51.986;4.666;2023-02-03T08:16:46;102628.47;;;14.72;62.41
38616;BME280;24370;51.986;4.666;2023-02-03T08:19:11;102639.84;;;14.62;61.25
38616;BME280;24370;51.986;4.666;2023-02-03T08:21:37;102647.78;;;14.93;60.32
38616;BME280;24370;51.986;4.666;2023-02-03T08:24:03;102664.47;;;14.80;60.90
38616;BME280;24370;51.986;4.666;2023-02-03T08:26:28;102668.88;;;15.05;59.42
38616;BME280;24370;51.986;4.666;2023-02-03T08:28:54;102653.91;;;14.64;61.23
38616;BME280;24370;51.986;4.666;2023-02-03T08:31:19;102653.91;;;14.64;62.03
38616;BME280;24370;51.986;4.666;2023-02-03T08:33:45;102653.94;;;15.15;60.43
38616;BME280;24370;51.986;4.666;2023-02-03T08:36:10;102647.78;;;14.71;60.52
38616;BME280;24370;51.986;4.666;2023-02-03T08:38:37;102646.91;;;14.72;61.46
38616;BME280;24370;51.986;4.666;2023-02-03T08:41:11;102648.59;;;14.58;63.77
38616;BME280;24370;51.986;4.666;2023-02-03T08:43:37;102647.63;;;14.30;63.54
38616;BME280;24370;51.986;4.666;2023-02-03T08:46:04;102655.72;;;14.84;60.85
38616;BME280;24370;51.986;4.666;2023-02-03T08:48:30;102662.72;;;15.33;59.13
38616;BME280;24370;51.986;4.666;2023-02-03T08:50:55;102671.53;;;15.12;60.18
38616;BME280;24370;51.986;4.666;2023-02-03T08:53:20;102666.19;;;14.68;62.64
38616;BME280;24370;51.986;4.666;2023-02-03T08:55:46;102673.25;;;14.91;61.74
38616;BME280;24370;51.986;4.666;2023-02-03T08:58:11;102648.69;;;15.17;60.29
38616;BME280;24370;51.986;4.666;2023-02-03T09:00:37;102662.72;;;14.97;60.09
38616;BME280;24370;51.986;4.666;2023-02-03T09:03:03;102671.47;;;14.65;63.45
38616;BME280;24370;51.986;4.666;2023-02-03T09:05:31;102680.16;;;14.42;63.29
38616;BME280;24370;51.986;4.666;2023-02-03T09:07:57;102671.47;;;14.74;62.92
38616;BME280;24370;51.986;4.666;2023-02-03T09:10:23;102675.91;;;15.20;61.30
38616;BME280;24370;51.986;4.666;2023-02-03T09:12:48;102687.19;;;14.47;64.38
38616;BME280;24370;51.986;4.666;2023-02-03T09:15:14;102689.00;;;15.94;57.91
38616;BME280;24370;51.986;4.666;2023-02-03T09:17:39;102696.84;;;14.58;63.66
38616;BME280;24370;51.986;4.666;2023-02-03T09:20:05;102706.63;;;15.38;59.28
38616;BME280;24370;51.986;4.666;2023-02-03T09:22:31;102724.94;;;14.61;62.34
38616;BME280;24370;51.986;4.666;2023-02-03T09:24:56;102698.69;;;14.84;62.81
38616;BME280;24370;51.986;4.666;2023-02-03T09:27:22;102701.34;;;15.61;59.18
38616;BME280;24370;51.986;4.666;2023-02-03T09:29:47;102705.44;;;14.13;64.30
38616;BME280;24370;51.986;4.666;2023-02-03T09:32:13;102715.25;;;14.60;63.46
38616;BME280;24370;51.986;4.666;2023-02-03T09:34:38;102712.78;;;15.26;60.60
38616;BME280;24370;51.986;4.666;2023-02-03T09:37:05;102717.16;;;15.12;61.19
38616;BME280;24370;51.986;4.666;2023-02-03T09:39:31;102720.66;;;15.82;59.97
38616;BME280;24370;51.986;4.666;2023-02-03T09:44:36;102726.81;;;15.12;62.28
38616;BME280;24370;51.986;4.666;2023-02-03T09:47:15;102710.16;;;15.40;59.34
38616;BME280;24370;51.986;4.666;2023-02-03T09:49:47;102696.97;;;15.11;59.25
38616;BME280;24370;51.986;4.666;2023-02-03T09:52:24;102715.38;;;15.93;57.74
38616;BME280;24370;51.986;4.666;2023-02-03T09:58:14;102726.81;;;15.90;57.99
38616;BME280;24370;51.986;4.666;2023-02-03T10:03:22;102743.47;;;16.06;57.34
38616;BME280;24370;51.986;4.666;2023-02-03T10:06:09;102729.44;;;15.92;58.01
38616;BME280;24370;51.986;4.666;2023-02-03T10:17:38;102742.56;;;16.14;58.46
38616;BME280;24370;51.986;4.666;2023-02-03T10:22:40;102747.88;;;16.01;57.63
38616;BME280;24370;51.986;4.666;2023-02-03T10:27:38;102749.53;;;16.32;55.69
38616;BME280;24370;51.986;4.666;2023-02-03T10:30:22;102741.47;;;16.67;54.66
38616;BME280;24370;51.986;4.666;2023-02-03T10:32:50;102746.06;;;16.22;56.32
38616;BME280;24370;51.986;4.666;2023-02-03T10:35:20;102749.69;;;15.88;57.13
38616;BME280;24370;51.986;4.666;2023-02-03T10:37:50;102760.91;;;16.51;55.52
38616;BME280;24370;51.986;4.666;2023-02-03T10:40:20;102759.31;;;16.06;57.02
38616;BME280;24370;51.986;4.666;2023-02-03T10:42:49;102758.97;;;16.87;55.04
38616;BME280;24370;51.986;4.666;2023-02-03T10:45:37;102779.53;;;15.90;57.51
38616;BME280;24370;51.986;4.666;2023-02-03T10:48:04;102776.91;;;16.01;57.90
38616;BME280;24370;51.986;4.666;2023-02-03T10:50:31;102776.84;;;16.17;56.53
38616;BME280;24370;51.986;4.666;2023-02-03T10:56:12;102778.69;;;15.50;58.50
38616;BME280;24370;51.986;4.666;2023-02-03T10:58:55;102796.94;;;16.59;55.60
38616;BME280;24370;51.986;4.666;2023-02-03T11:01:24;102792.72;;;15.76;57.35
38616;BME280;24370;51.986;4.666;2023-02-03T11:04:01;102795.34;;;15.78;57.04
38616;BME280;24370;51.986;4.666;2023-02-03T11:06:29;102795.38;;;16.07;57.50
38616;BME280;24370;51.986;4.666;2023-02-03T11:08:55;102796.13;;;16.43;56.31
38616;BME280;24370;51.986;4.666;2023-02-03T11:11:29;102798.00;;;15.92;57.95
38616;BME280;24370;51.986;4.666;2023-02-03T11:16:29;102787.22;;;16.66;55.20
38616;BME280;24370;51.986;4.666;2023-02-03T11:18:58;102776.91;;;16.00;57.39
38616;BME280;24370;51.986;4.666;2023-02-03T11:21:28;102789.03;;;16.61;56.17
38616;BME280;24370;51.986;4.666;2023-02-03T11:26:25;102797.97;;;15.76;57.87
38616;BME280;24370;51.986;4.666;2023-02-03T11:28:53;102785.69;;;15.88;57.30
38616;BME280;24370;51.986;4.666;2023-02-03T11:31:26;102781.94;;;16.66;56.15
38616;BME280;24370;51.986;4.666;2023-02-03T11:33:59;102794.38;;;16.42;56.00
38616;BME280;24370;51.986;4.666;2023-02-03T11:36:26;102792.69;;;16.20;56.52
38616;BME280;24370;51.986;4.666;2023-02-03T11:38:51;102808.50;;;15.27;59.80
38616;BME280;24370;51.986;4.666;2023-02-03T11:41:19;102796.25;;;15.97;56.94
38616;BME280;24370;51.986;4.666;2023-02-03T11:43:46;102798.88;;;15.94;57.88
38616;BME280;24370;51.986;4.666;2023-02-03T11:46:13;102787.38;;;16.35;56.61
38616;BME280;24370;51.986;4.666;2023-02-03T11:49:32;102799.75;;;15.65;59.64
38616;BME280;24370;51.986;4.666;2023-02-03T12:08:26;102790.00;;;16.37;57.28
38616;BME280;24370;51.986;4.666;2023-02-03T12:21:34;102792.69;;;16.20;56.45
38616;BME280;24370;51.986;4.666;2023-02-03T12:27:37;102792.41;;;16.88;54.98
38616;BME280;24370;51.986;4.666;2023-02-03T12:30:17;102800.59;;;16.14;56.90
38616;BME280;24370;51.986;4.666;2023-02-03T12:33:03;102806.78;;;15.55;59.21
38616;BME280;24370;51.986;4.666;2023-02-03T12:41:21;102798.81;;;16.33;57.88
38616;BME280;24370;51.986;4.666;2023-02-03T12:43:52;102790.06;;;16.21;57.67
38616;BME280;24370;51.986;4.666;2023-02-03T12:46:29;102796.22;;;15.72;59.29
38616;BME280;24370;51.986;4.666;2023-02-03T12:51:54;102796.19;;;16.22;57.82
38616;BME280;24370;51.986;4.666;2023-02-03T12:57:34;102810.19;;;16.44;56.60
38616;BME280;24370;51.986;4.666;2023-02-03T13:02:34;102811.06;;;16.52;56.66
38616;BME280;24370;51.986;4.666;2023-02-03T13:05:25;102810.06;;;16.89;54.67
38616;BME280;24370;51.986;4.666;2023-02-03T13:08:03;102795.88;;;17.05;54.59
38616;BME280;24370;51.986;4.666;2023-02-03T13:10:47;102814.63;;;16.26;56.58
38616;BME280;24370;51.986;4.666;2023-02-03T13:13:19;102816.44;;;16.20;56.47
38616;BME280;24370;51.986;4.666;2023-02-03T13:15:48;102815.56;;;15.56;61.05
38616;BME280;24370;51.986;4.666;2023-02-03T13:18:37;102834.00;;;16.30;58.22
38616;BME280;24370;51.986;4.666;2023-02-03T13:21:09;102830.53;;;15.85;61.74
38616;BME280;24370;51.986;4.666;2023-02-03T13:23:35;102839.34;;;15.88;60.84
38616;BME280;24370;51.986;4.666;2023-02-03T13:26:16;102850.66;;;16.51;57.60
38616;BME280;24370;51.986;4.666;2023-02-03T13:31:27;102841.59;;;17.17;55.74
38616;BME280;24370;51.986;4.666;2023-02-03T13:39:59;102862.13;;;16.33;58.64
38616;BME280;24370;51.986;4.666;2023-02-03T13:42:30;102851.53;;;15.37;61.73
38616;BME280;24370;51.986;4.666;2023-02-03T13:45:04;102847.19;;;15.65;62.92
38616;BME280;24370;51.986;4.666;2023-02-03T13:47:31;102855.06;;;15.42;64.65
38616;BME280;24370;51.986;4.666;2023-02-03T13:50:00;102851.56;;;15.44;63.91
38616;BME280;24370;51.986;4.666;2023-02-03T13:52:31;102854.25;;;16.17;61.75
38616;BME280;24370;51.986;4.666;2023-02-03T13:54:59;102859.50;;;16.34;61.30
38616;BME280;24370;51.986;4.666;2023-02-03T13:57:36;102850.75;;;15.92;62.69
38616;BME280;24370;51.986;4.666;2023-02-03T14:06:04;102868.28;;;15.64;65.54
38616;BME280;24370;51.986;4.666;2023-02-03T14:21:57;102886.66;;;15.34;67.61
38616;BME280;24370;51.986;4.666;2023-02-03T14:24:29;102888.19;;;14.69;71.97
38616;BME280;24370;51.986;4.666;2023-02-03T14:26:56;102894.59;;;15.40;67.72
38616;BME280;24370;51.986;4.666;2023-02-03T14:29:33;102894.66;;;15.65;64.99
38616;BME280;24370;51.986;4.666;2023-02-03T14:32:05;102885.56;;;14.70;65.19
38616;BME280;24370;51.986;4.666;2023-02-03T14:34:43;102893.47;;;14.75;67.66
38616;BME280;24370;51.986;4.666;2023-02-03T14:37:28;102905.03;;;15.09;67.02
38616;BME280;24370;51.986;4.666;2023-02-03T14:54:08;102901.59;;;15.38;66.24
38616;BME280;24370;51.986;4.666;2023-02-03T14:59:35;102919.91;;;14.98;68.61
38616;BME280;24370;51.986;4.666;2023-02-03T15:04:27;102914.94;;;16.16;63.76
38616;BME280;24370;51.986;4.666;2023-02-03T15:06:53;102924.41;;;15.30;69.01
38616;BME280;24370;51.986;4.666;2023-02-03T15:09:28;102924.41;;;15.21;68.74
38616;BME280;24370;51.986;4.666;2023-02-03T15:11:55;102922.72;;;15.52;66.77
38616;BME280;24370;51.986;4.666;2023-02-03T15:14:25;102936.72;;;15.34;67.13
38616;BME280;24370;51.986;4.666;2023-02-03T15:17:02;102919.28;;;15.70;63.95
38616;BME280;24370;51.986;4.666;2023-02-03T15:19:33;102919.25;;;15.61;65.60